Time;durP1;ratioP1;P1;durP2;ratioP2;P2;SDS_P1;SDS_P2;PMS_P1;PMS_P2;Temp;Humidity;BMP_temperature;BMP_pressure;BME280_temperature;BME280_humidity;BME280_pressure;Samples;Min_cycle;Max_cycle;Signal;HPM_P1;HPM_P2
2021/07/24 00:00:45;;;;;;;8.40;5.42;;;;;;;20.07;56.27;100423.56;1770019;79;21078;-69
2021/07/24 00:03:12;;;;;;;10.75;6.00;;;;;;;20.02;56.31;100429.48;1771937;79;21069;-69
2021/07/24 00:05:39;;;;;;;10.20;5.50;;;;;;;20.00;56.35;100427.98;1769894;79;20988;-69
2021/07/24 00:08:05;;;;;;;10.98;4.85;;;;;;;19.98;56.55;100427.34;1768264;79;21074;-69
2021/07/24 00:10:32;;;;;;;10.50;5.35;;;;;;;19.96;56.72;100426.71;1764598;79;21522;-69
2021/07/24 00:12:58;;;;;;;8.95;5.72;;;;;;;19.94;56.96;100429.56;1766644;79;21513;-69
2021/07/24 00:15:25;;;;;;;7.92;4.87;;;;;;;19.93;57.01;100433.23;1744773;80;21080;-69
2021/07/24 00:17:51;;;;;;;12.65;5.50;;;;;;;19.92;57.04;100434.75;1764794;79;21050;-69
2021/07/24 00:20:17;;;;;;;9.25;5.25;;;;;;;19.89;56.99;100430.62;1768562;79;21077;-69
2021/07/24 00:22:45;;;;;;;8.90;5.03;;;;;;;19.88;57.08;100436.14;1739512;80;21133;-69
2021/07/24 00:25:12;;;;;;;10.32;5.25;;;;;;;19.85;57.18;100434.16;1769121;80;21541;-69
2021/07/24 00:27:38;;;;;;;9.18;4.92;;;;;;;19.83;57.26;100430.82;1766552;80;21036;-69
2021/07/24 00:30:07;;;;;;;11.60;5.50;;;;;;;19.82;57.24;100431.00;1769922;79;20988;-69
2021/07/24 00:32:34;;;;;;;9.00;5.50;;;;;;;19.82;57.28;100428.33;1773259;80;21023;-69
2021/07/24 00:35:01;;;;;;;10.50;5.10;;;;;;;19.81;57.35;100432.85;1755820;80;21501;-70
2021/07/24 00:37:27;;;;;;;10.38;5.28;;;;;;;19.79;57.77;100432.21;1767795;80;21107;-70
2021/07/24 00:39:54;;;;;;;6.97;4.92;;;;;;;19.81;58.02;100431.52;1770899;80;21949;-69
2021/07/24 00:42:23;;;;;;;8.83;5.30;;;;;;;19.90;58.05;100428.77;1766718;79;21027;-69
2021/07/24 00:44:51;;;;;;;8.18;5.00;;;;;;;19.97;57.92;100431.88;1756274;80;21518;-69
2021/07/24 00:47:22;;;;;;;8.78;5.20;;;;;;;20.02;57.95;100429.48;1765868;79;21113;-68
2021/07/24 00:49:50;;;;;;;9.80;5.35;;;;;;;20.04;57.60;100432.78;1770749;80;21047;-70
2021/07/24 00:52:17;;;;;;;9.00;5.22;;;;;;;20.02;57.31;100427.29;1764359;80;21576;-69
2021/07/24 00:54:43;;;;;;;9.00;5.35;;;;;;;19.98;57.14;100436.70;1763984;80;21051;-68
2021/07/24 00:57:13;;;;;;;6.92;4.15;;;;;;;19.92;57.11;100434.75;1771564;80;21062;-69
2021/07/24 00:59:40;;;;;;;9.25;5.20;;;;;;;19.85;57.01;100443.51;1727842;80;21034;-68
2021/07/24 01:02:06;;;;;;;7.90;5.00;;;;;;;19.76;57.25;100445.09;1781528;79;21058;-69
2021/07/24 01:04:33;;;;;;;11.63;5.17;;;;;;;19.65;57.75;100438.31;1762651;80;21120;-68
2021/07/24 01:07:05;;;;;;;8.03;4.53;;;;;;;19.56;57.87;100444.23;1726096;81;21063;-69
2021/07/24 01:09:33;;;;;;;8.93;5.30;;;;;;;19.45;58.34;100444.17;1745229;81;21545;-67
2021/07/24 01:12:04;;;;;;;7.42;5.03;;;;;;;19.38;58.84;100440.53;1725694;81;21605;-67
2021/07/24 01:14:35;;;;;;;8.88;5.15;;;;;;;19.31;58.94;100439.08;1748051;82;21571;-67
2021/07/24 01:17:01;;;;;;;7.30;4.40;;;;;;;19.27;59.38;100443.13;1741991;81;21520;-68
2021/07/24 01:19:29;;;;;;;10.65;5.58;;;;;;;19.27;59.86;100436.98;1747055;80;21062;-68
2021/07/24 01:21:56;;;;;;;7.70;5.17;;;;;;;19.28;59.99;100438.14;1723583;82;21345;-69
2021/07/24 01:24:23;;;;;;;7.40;5.03;;;;;;;19.36;60.04;100439.89;1746411;82;21044;-68
2021/07/24 01:26:50;;;;;;;7.30;4.83;;;;;;;19.44;60.21;100444.34;1743412;80;20987;-69
2021/07/24 01:29:20;;;;;;;9.30;5.45;;;;;;;19.47;60.26;100436.80;1745469;81;21758;-68
2021/07/24 01:31:48;;;;;;;9.13;4.97;;;;;;;19.49;59.97;100445.45;1740265;82;21094;-68
2021/07/24 01:34:15;;;;;;;8.70;5.47;;;;;;;19.48;59.55;100444.30;1744734;80;21627;-68
2021/07/24 01:36:41;;;;;;;9.08;4.78;;;;;;;19.45;59.46;100437.50;1743773;82;21067;-69
2021/07/24 01:39:09;;;;;;;10.63;5.22;;;;;;;19.43;59.45;100448.86;1745763;82;21552;-68
2021/07/24 01:41:35;;;;;;;9.40;4.45;;;;;;;19.39;59.33;100446.20;1749529;82;21106;-68
2021/07/24 01:44:02;;;;;;;8.35;4.40;;;;;;;19.34;59.15;100443.25;1750130;80;21723;-68
2021/07/24 01:46:29;;;;;;;9.80;5.30;;;;;;;19.28;59.04;100442.13;1745221;81;21118;-69
2021/07/24 01:54:36;;;;;;;10.30;5.03;;;;;;;19.07;59.46;100444.10;1747533;80;21051;-68
2021/07/24 01:57:06;;;;;;;7.47;4.53;;;;;;;18.97;59.66;100448.84;1718791;82;21055;-68
2021/07/24 01:59:37;;;;;;;8.68;5.37;;;;;;;18.91;59.95;100456.20;1762884;80;21058;-68
2021/07/24 02:02:04;;;;;;;10.70;5.20;;;;;;;18.89;60.13;100449.70;1741969;82;21106;-68
2021/07/24 02:04:30;;;;;;;8.18;5.03;;;;;;;18.91;60.16;100450.87;1745898;81;21091;-68
2021/07/24 02:07:06;;;;;;;7.95;5.30;;;;;;;18.92;60.23;100447.20;1726779;82;21224;-68
2021/07/24 02:09:53;;;;;;;8.30;4.90;;;;;;;18.89;60.40;100447.55;1762041;80;21513;-68
2021/07/24 02:12:21;;;;;;;9.73;4.78;;;;;;;18.87;60.34;100451.73;1742445;80;21700;-68
2021/07/24 02:14:49;;;;;;;11.95;5.53;;;;;;;18.85;60.34;100451.59;1758452;80;21047;-68
2021/07/24 02:17:21;;;;;;;10.55;5.17;;;;;;;18.82;60.37;100454.05;1702346;82;20992;-68
2021/07/24 02:19:49;;;;;;;9.05;5.12;;;;;;;18.78;60.46;100451.42;1755649;79;21095;-68
2021/07/24 02:22:16;;;;;;;7.08;4.42;;;;;;;18.71;60.61;100454.44;1698654;83;21046;-69
2021/07/24 02:24:44;;;;;;;10.20;4.80;;;;;;;18.64;60.77;100452.97;1762000;80;21114;-67
2021/07/24 02:27:11;;;;;;;7.40;4.55;;;;;;;18.59;60.97;100455.84;1759366;80;22536;-68
2021/07/24 02:29:39;;;;;;;11.18;4.97;;;;;;;18.52;61.26;100455.70;1753157;80;21038;-67
2021/07/24 02:32:07;;;;;;;8.73;5.33;;;;;;;18.47;61.46;100461.54;1756656;80;21184;-68
2021/07/24 02:34:33;;;;;;;10.43;5.60;;;;;;;18.48;61.48;100460.55;1745958;80;21509;-68
2021/07/24 02:37:00;;;;;;;7.47;4.87;;;;;;;18.48;61.50;100455.73;1733964;82;21024;-67
2021/07/24 02:39:26;;;;;;;7.20;4.58;;;;;;;18.45;61.53;100456.89;1681479;84;21068;-68
2021/07/24 02:41:55;;;;;;;8.00;4.65;;;;;;;18.43;61.61;100462.91;1760348;80;21082;-67
2021/07/24 02:44:22;;;;;;;9.40;5.40;;;;;;;18.41;61.68;100460.06;1755652;80;21477;-68
2021/07/24 02:46:48;;;;;;;8.65;5.25;;;;;;;18.38;61.83;100460.75;1757388;79;21051;-68
2021/07/24 02:49:17;;;;;;;10.13;5.45;;;;;;;18.37;61.89;100471.09;1761234;80;21059;-67
2021/07/24 02:51:45;;;;;;;8.30;4.70;;;;;;;18.34;61.99;100461.25;1694414;83;21075;-68
2021/07/24 02:54:13;;;;;;;10.85;5.22;;;;;;;18.33;61.83;100465.76;1727136;80;21451;-68
2021/07/24 02:56:41;;;;;;;11.08;5.55;;;;;;;18.32;61.86;100460.60;1766015;79;21900;-68
2021/07/24 02:59:07;;;;;;;6.90;4.37;;;;;;;18.36;61.88;100465.42;1770103;80;21046;-69
2021/07/24 03:01:36;;;;;;;9.28;5.15;;;;;;;18.44;61.77;100467.23;1750964;79;21558;-68
2021/07/24 03:04:03;;;;;;;9.20;4.83;;;;;;;18.48;61.62;100467.72;1762309;79;21108;-63
2021/07/24 03:06:30;;;;;;;10.10;5.42;;;;;;;18.48;61.63;100470.39;1759866;80;21058;-73
2021/07/24 03:08:58;;;;;;;9.35;4.85;;;;;;;18.48;61.62;100457.89;1761343;80;21589;-72
2021/07/24 03:11:25;;;;;;;8.60;5.12;;;;;;;18.49;61.63;100460.04;1763953;79;21050;-70
2021/07/24 03:13:53;;;;;;;11.12;5.42;;;;;;;18.45;61.52;100469.39;1762379;80;21522;-71
2021/07/24 03:16:19;;;;;;;10.08;4.95;;;;;;;18.44;61.68;100471.72;1738985;80;21125;-71
2021/07/24 03:18:47;;;;;;;8.10;4.67;;;;;;;18.46;61.61;100472.37;1760153;80;21557;-70
2021/07/24 03:21:14;;;;;;;10.43;6.08;;;;;;;18.44;61.61;100477.05;1769353;79;21152;-68
2021/07/24 03:23:42;;;;;;;7.47;4.67;;;;;;;18.41;61.76;100474.23;1738096;80;21596;-70
2021/07/24 03:26:11;;;;;;;8.25;4.97;;;;;;;18.44;61.76;100471.72;1736115;80;21081;-71
2021/07/24 03:28:38;;;;;;;8.23;4.97;;;;;;;18.53;61.80;100472.03;1748531;80;21031;-71
2021/07/24 03:31:05;;;;;;;8.38;5.45;;;;;;;18.60;61.67;100474.33;1741432;80;21023;-70
2021/07/24 03:33:31;;;;;;;8.00;5.65;;;;;;;18.63;61.59;100471.31;1760278;80;21760;-72
2021/07/24 03:35:58;;;;;;;9.75;4.87;;;;;;;18.66;61.48;100475.45;1757636;80;21560;-69
2021/07/24 03:38:24;;;;;;;9.38;5.28;;;;;;;18.66;61.41;100476.78;1758993;80;21074;-71
2021/07/24 03:40:50;;;;;;;9.00;5.28;;;;;;;18.66;61.34;100480.30;1748250;80;21562;-70
2021/07/24 03:43:17;;;;;;;10.18;5.37;;;;;;;18.67;61.43;100475.80;1686336;82;21126;-69
2021/07/24 03:45:43;;;;;;;8.20;5.33;;;;;;;18.65;61.57;100487.14;1737254;80;21126;-69
2021/07/24 03:48:10;;;;;;;8.80;5.12;;;;;;;18.65;61.51;100489.30;1742459;80;21503;-67
2021/07/24 03:50:36;;;;;;;7.12;4.80;;;;;;;18.65;61.47;100487.95;1736030;80;21031;-68
2021/07/24 03:53:03;;;;;;;8.65;4.85;;;;;;;18.68;61.41;100492.13;1760041;80;21103;-68
2021/07/24 03:55:30;;;;;;;8.95;5.62;;;;;;;18.76;61.20;100489.39;1743167;80;21660;-68
2021/07/24 03:57:57;;;;;;;8.90;5.20;;;;;;;18.81;61.29;100492.88;1755658;79;21047;-67
2021/07/24 04:00:24;;;;;;;7.85;4.58;;;;;;;18.82;60.99;100493.22;1737725;80;21556;-70
2021/07/24 04:02:51;;;;;;;8.08;5.12;;;;;;;18.80;60.93;100495.23;1749120;80;21553;-70
2021/07/24 04:05:20;;;;;;;9.38;4.95;;;;;;;18.80;61.07;100492.06;1765505;80;21121;-70
2021/07/24 04:07:46;;;;;;;9.23;5.72;;;;;;;18.82;61.19;100489.22;1749791;80;21121;-68
2021/07/24 04:10:14;;;;;;;7.62;5.08;;;;;;;18.86;61.27;100497.22;1760035;79;20996;-70
2021/07/24 04:12:43;;;;;;;9.05;4.67;;;;;;;18.89;61.07;100495.54;1764094;80;21075;-69
2021/07/24 04:15:10;;;;;;;7.40;4.92;;;;;;;18.91;60.96;100493.52;1760767;80;21486;-69
2021/07/24 04:17:36;;;;;;;12.70;5.22;;;;;;;18.98;61.01;100497.17;1761265;79;20996;-68
2021/07/24 04:20:04;;;;;;;8.63;4.83;;;;;;;19.07;60.96;100494.77;1747833;80;21069;-67
2021/07/24 04:22:30;;;;;;;8.63;5.55;;;;;;;19.17;60.80;100489.73;1765277;79;21109;-69
2021/07/24 04:24:56;;;;;;;8.60;4.83;;;;;;;19.22;60.75;100484.70;1766107;80;21517;-68
2021/07/24 04:27:23;;;;;;;11.78;5.47;;;;;;;19.28;60.46;100487.97;1744170;80;21110;-69
2021/07/24 04:29:49;;;;;;;8.83;4.42;;;;;;;19.34;60.69;100491.78;1768000;80;20980;-69
2021/07/24 04:32:16;;;;;;;9.73;5.15;;;;;;;19.41;60.58;100490.88;1767112;80;21050;-68
2021/07/24 04:34:42;;;;;;;12.45;6.12;;;;;;;19.52;60.27;100490.12;1769232;80;21143;-68
2021/07/24 04:37:09;;;;;;;8.15;4.67;;;;;;;19.58;60.05;100489.42;1761280;79;20976;-73
2021/07/24 04:39:36;;;;;;;7.97;4.75;;;;;;;19.64;59.86;100490.88;1757518;79;21035;-72
2021/07/24 04:42:04;;;;;;;10.82;5.58;;;;;;;19.73;59.63;100491.63;1756234;80;21031;-71
2021/07/24 04:44:30;;;;;;;9.75;5.55;;;;;;;19.82;59.36;100493.27;1768136;80;21031;-72
2021/07/24 04:46:57;;;;;;;8.43;5.10;;;;;;;19.97;58.85;100493.78;1758634;79;21090;-72
2021/07/24 04:49:23;;;;;;;8.35;5.28;;;;;;;20.08;59.06;100493.86;1739192;80;21582;-72
2021/07/24 04:51:51;;;;;;;10.55;5.70;;;;;;;20.17;58.93;100495.42;1757549;80;21510;-72
2021/07/24 04:54:17;;;;;;;9.53;6.03;;;;;;;20.26;59.09;100484.98;1750583;79;21047;-72
2021/07/24 04:56:44;;;;;;;9.00;5.22;;;;;;;20.34;58.62;100490.72;1737519;80;21493;-71
2021/07/24 04:59:11;;;;;;;9.58;5.15;;;;;;;20.40;58.50;100495.34;1763775;80;21054;-70
2021/07/24 05:01:38;;;;;;;9.40;5.72;;;;;;;20.45;58.11;100490.27;1753056;80;21091;-70
2021/07/24 05:04:05;;;;;;;8.98;5.33;;;;;;;20.48;58.02;100489.09;1734067;82;21515;-71
2021/07/24 05:06:34;;;;;;;9.98;5.83;;;;;;;20.49;58.16;100492.06;1744344;80;21636;-70
2021/07/24 05:09:01;;;;;;;9.08;5.47;;;;;;;20.52;57.89;100492.52;1740060;81;21056;-70
2021/07/24 05:11:27;;;;;;;9.05;5.40;;;;;;;20.56;57.60;100488.96;1719967;82;21529;-69
2021/07/24 05:13:54;;;;;;;8.60;5.35;;;;;;;20.60;57.44;100489.75;1714794;81;21051;-67
2021/07/24 05:16:21;;;;;;;8.38;5.40;;;;;;;20.64;57.24;100486.73;1736521;80;21015;-67
2021/07/24 05:18:48;;;;;;;8.15;5.08;;;;;;;20.69;57.64;100495.03;1711164;81;21066;-68
2021/07/24 05:21:16;;;;;;;9.45;5.75;;;;;;;20.76;57.31;100488.76;1712204;83;20991;-69
2021/07/24 05:23:44;;;;;;;12.33;4.78;;;;;;;20.91;57.35;100490.56;1723335;82;21144;-69
2021/07/24 05:26:14;;;;;;;9.93;6.15;;;;;;;21.04;56.60;100493.91;1716046;81;21561;-69
2021/07/24 05:28:44;;;;;;;7.85;5.05;;;;;;;21.12;56.42;100491.11;1712286;81;21118;-70
2021/07/24 05:31:25;;;;;;;8.50;5.78;;;;;;;21.20;56.09;100486.98;1712291;81;21067;-70
2021/07/24 05:33:51;;;;;;;10.05;5.37;;;;;;;21.26;55.79;100490.73;1682327;83;21082;-70
2021/07/24 05:36:18;;;;;;;9.43;5.85;;;;;;;21.36;55.87;100489.09;1691283;83;21121;-71
2021/07/24 05:38:45;;;;;;;11.18;6.10;;;;;;;21.42;55.47;100489.67;1720283;83;21363;-68
2021/07/24 05:41:12;;;;;;;9.55;4.92;;;;;;;21.48;55.41;100483.56;1710883;81;21628;-68
2021/07/24 05:43:38;;;;;;;8.93;5.40;;;;;;;21.55;55.20;100485.78;1722066;83;21054;-68
2021/07/24 05:46:04;;;;;;;9.03;5.65;;;;;;;21.61;55.47;100486.36;1682603;83;21086;-70
2021/07/24 05:48:30;;;;;;;8.15;4.75;;;;;;;21.69;54.88;100492.92;1711877;82;21495;-69
2021/07/24 05:50:57;;;;;;;9.23;5.55;;;;;;;21.77;54.56;100496.47;1689624;83;21098;-68
2021/07/24 05:53:23;;;;;;;8.68;4.83;;;;;;;21.80;55.03;100491.55;1717743;83;21082;-68
2021/07/24 05:55:50;;;;;;;7.53;4.78;;;;;;;21.88;54.72;100494.61;1721861;82;21023;-68
2021/07/24 05:58:17;;;;;;;7.85;5.28;;;;;;;21.96;54.55;100493.12;1689905;83;21011;-74
2021/07/24 06:00:44;;;;;;;8.93;5.80;;;;;;;22.03;53.87;100491.84;1714325;81;21117;-73
2021/07/24 06:03:10;;;;;;;8.40;5.30;;;;;;;22.09;53.60;100492.41;1715886;83;21106;-67
2021/07/24 06:05:37;;;;;;;8.15;4.97;;;;;;;22.17;53.92;100495.42;1717761;82;21062;-71
2021/07/24 06:08:05;;;;;;;12.28;5.25;;;;;;;22.24;53.56;100496.28;1711606;81;21063;-71
2021/07/24 06:10:31;;;;;;;9.50;5.45;;;;;;;22.30;53.52;100488.84;1719811;82;21110;-68
2021/07/24 06:12:58;;;;;;;11.48;5.03;;;;;;;22.38;53.32;100495.91;1734587;80;22185;-70
2021/07/24 06:15:25;;;;;;;9.00;5.50;;;;;;;22.43;53.09;100495.62;1768012;80;20976;-67
2021/07/24 06:17:51;;;;;;;9.83;6.10;;;;;;;22.48;52.46;100491.50;1761525;79;21082;-69
2021/07/24 06:20:18;;;;;;;9.70;6.08;;;;;;;22.51;52.21;100494.64;1752545;80;21039;-74
2021/07/24 06:22:45;;;;;;;11.90;4.70;;;;;;;22.56;52.32;100495.36;1759923;80;21046;-71
2021/07/24 06:25:12;;;;;;;9.45;5.65;;;;;;;22.62;52.61;100497.25;1763678;80;21114;-72
2021/07/24 06:27:43;;;;;;;12.43;5.83;;;;;;;22.71;52.18;100500.09;1758946;80;21102;-69
2021/07/24 06:30:10;;;;;;;8.48;5.50;;;;;;;22.77;52.73;100499.80;1741574;80;21019;-73
2021/07/24 06:32:37;;;;;;;9.65;5.70;;;;;;;22.86;52.44;100499.92;1757852;80;21067;-71
2021/07/24 06:35:04;;;;;;;8.80;5.30;;;;;;;22.94;51.89;100496.25;1757536;79;21043;-66
2021/07/24 06:37:31;;;;;;;12.82;5.22;;;;;;;23.00;51.98;100494.92;1761656;80;21123;-72
2021/07/24 06:39:57;;;;;;;9.23;5.95;;;;;;;23.10;51.31;100488.36;1726256;80;20968;-62
2021/07/24 06:42:24;;;;;;;8.95;4.78;;;;;;;23.16;50.65;100495.61;1759146;80;21051;-72
2021/07/24 06:44:53;;;;;;;8.68;6.10;;;;;;;23.21;50.65;100496.35;1761797;80;21110;-64
2021/07/24 06:47:21;;;;;;;9.28;5.22;;;;;;;23.26;51.00;100495.23;1755625;79;21522;-68
2021/07/24 06:49:47;;;;;;;11.03;6.45;;;;;;;23.32;50.56;100501.95;1755404;80;21093;-71
2021/07/24 06:52:14;;;;;;;10.48;5.33;;;;;;;23.39;50.12;100501.14;1761906;79;21087;-65
2021/07/24 06:54:40;;;;;;;9.40;5.40;;;;;;;23.44;49.50;100495.46;1754268;79;21620;-66
2021/07/24 06:57:07;;;;;;;12.28;5.10;;;;;;;23.50;48.63;100493.31;1734971;79;21117;-71
2021/07/24 06:59:33;;;;;;;9.75;4.78;;;;;;;23.56;49.49;100494.33;1766961;79;21043;-66
2021/07/24 07:01:59;;;;;;;7.60;4.87;;;;;;;23.62;49.05;100491.33;1738227;80;21717;-67
2021/07/24 07:04:27;;;;;;;9.73;5.20;;;;;;;23.68;49.39;100490.52;1758902;80;21016;-67
2021/07/24 07:06:54;;;;;;;10.28;4.67;;;;;;;23.73;49.25;100494.75;1753668;79;22271;-70
2021/07/24 07:09:21;;;;;;;9.28;5.40;;;;;;;23.78;48.97;100497.64;1762606;79;21060;-70
2021/07/24 07:11:49;;;;;;;10.23;5.30;;;;;;;23.85;48.99;100494.45;1762167;79;21113;-66
2021/07/24 07:14:16;;;;;;;9.13;4.92;;;;;;;23.94;49.29;100495.09;1766199;80;21772;-66
2021/07/24 07:16:42;;;;;;;10.95;4.97;;;;;;;24.02;47.70;100497.53;1767298;79;21066;-66
2021/07/24 07:19:09;;;;;;;10.35;5.45;;;;;;;24.07;47.49;100494.23;1773299;79;21619;-66
2021/07/24 07:21:36;;;;;;;9.90;5.42;;;;;;;24.11;47.75;100492.27;1768723;79;21027;-67
2021/07/24 07:24:03;;;;;;;9.98;5.25;;;;;;;24.14;47.89;100498.25;1760976;80;21093;-69
2021/07/24 07:26:30;;;;;;;9.80;4.87;;;;;;;24.16;48.14;100495.67;1766487;79;21504;-70
2021/07/24 07:28:58;;;;;;;8.05;5.22;;;;;;;24.20;48.43;100495.55;1771280;80;21046;-66
2021/07/24 07:31:25;;;;;;;10.90;5.78;;;;;;;24.25;48.21;100497.62;1765112;80;21062;-66
2021/07/24 07:33:52;;;;;;;9.00;5.33;;;;;;;24.28;47.97;100496.67;1763444;79;21109;-67
2021/07/24 07:36:18;;;;;;;7.92;5.17;;;;;;;24.30;47.84;100496.47;1766976;80;21313;-67
2021/07/24 07:38:47;;;;;;;9.05;5.30;;;;;;;24.34;47.92;100497.69;1756032;80;21090;-65
2021/07/24 07:41:13;;;;;;;8.23;5.20;;;;;;;24.41;47.43;100493.63;1766058;79;21133;-67
2021/07/24 07:43:42;;;;;;;9.55;5.40;;;;;;;24.43;46.79;100491.58;1768516;79;21102;-67
2021/07/24 07:46:11;;;;;;;9.05;5.30;;;;;;;24.46;46.96;100497.36;1764658;80;21126;-66
2021/07/24 07:48:38;;;;;;;7.50;4.95;;;;;;;24.52;47.17;100492.98;1743172;80;21635;-66
2021/07/24 07:51:05;;;;;;;11.88;5.87;;;;;;;24.58;46.92;100492.18;1767843;79;21145;-64
2021/07/24 07:53:32;;;;;;;10.63;6.08;;;;;;;24.64;46.83;100499.38;1765612;80;21351;-67
2021/07/24 07:56:00;;;;;;;9.60;5.25;;;;;;;24.69;46.34;100501.96;1767385;79;21680;-68
2021/07/24 07:58:27;;;;;;;10.18;5.92;;;;;;;24.70;47.11;100498.25;1768209;80;21105;-68
2021/07/24 08:00:53;;;;;;;9.58;5.55;;;;;;;24.74;47.40;100500.27;1767938;79;21026;-68
2021/07/24 08:03:24;;;;;;;9.80;5.62;;;;;;;24.80;47.17;100495.92;1721688;80;21054;-65
2021/07/24 08:05:48;;;;;;;9.43;5.00;;;;;;;24.88;47.70;100494.34;1761199;80;21072;-65
2021/07/24 08:08:16;;;;;;;9.78;5.53;;;;;;;24.93;46.18;100493.66;1733698;80;21078;-59
2021/07/24 08:10:43;;;;;;;8.48;5.58;;;;;;;24.96;46.18;100491.37;1767735;79;21564;-66
2021/07/24 08:13:16;;;;;;;10.75;5.30;;;;;;;25.02;45.85;100495.08;1765038;79;21050;-71
2021/07/24 08:15:44;;;;;;;8.78;5.37;;;;;;;25.10;45.77;100488.10;1755694;79;21151;-71
2021/07/24 08:18:11;;;;;;;11.22;5.47;;;;;;;25.21;45.25;100491.43;1764352;79;21034;-72
2021/07/24 08:20:40;;;;;;;9.43;5.72;;;;;;;25.32;45.91;100495.34;1746329;80;21101;-71
2021/07/24 08:23:10;;;;;;;8.15;5.20;;;;;;;25.40;45.97;100496.93;1733552;81;21047;-70
2021/07/24 08:25:37;;;;;;;10.23;4.85;;;;;;;25.43;44.67;100498.37;1766161;79;21700;-70
2021/07/24 08:28:04;;;;;;;9.40;5.22;;;;;;;25.42;43.89;100500.75;1763328;80;21315;-71
2021/07/24 08:30:31;;;;;;;8.13;5.45;;;;;;;25.42;43.69;100501.60;1773410;80;22082;-70
2021/07/24 08:32:59;;;;;;;8.58;4.72;;;;;;;25.44;43.41;100499.51;1734014;82;21118;-70
2021/07/24 08:35:26;;;;;;;8.53;5.47;;;;;;;25.48;43.12;100495.85;1768444;79;21129;-72
2021/07/24 08:37:53;;;;;;;11.15;5.10;;;;;;;25.54;43.30;100503.06;1771326;80;21576;-71
2021/07/24 08:40:19;;;;;;;10.30;4.47;;;;;;;25.61;43.19;100498.45;1764500;79;21399;-73
2021/07/24 08:42:47;;;;;;;9.45;5.22;;;;;;;25.69;42.34;100499.52;1764030;80;22375;-73
2021/07/24 08:45:19;;;;;;;9.75;4.92;;;;;;;25.73;41.32;100496.67;1767314;79;21078;-70
2021/07/24 08:47:45;;;;;;;8.13;4.67;;;;;;;25.75;41.23;100493.23;1764405;79;21679;-74
2021/07/24 08:50:13;;;;;;;8.00;5.33;;;;;;;25.76;39.25;100490.85;1745202;80;21081;-74
2021/07/24 08:52:39;;;;;;;7.35;4.78;;;;;;;25.78;39.24;100494.14;1762353;80;21587;-68
2021/07/24 08:55:07;;;;;;;9.50;5.25;;;;;;;25.80;39.62;100488.53;1766773;80;21608;-71
2021/07/24 08:57:41;;;;;;;9.43;5.67;;;;;;;25.83;39.78;100492.14;1768742;79;22229;-72
2021/07/24 09:00:11;;;;;;;10.68;5.05;;;;;;;25.85;39.13;100490.05;1773684;79;21074;-59
2021/07/24 09:02:43;;;;;;;8.03;4.92;;;;;;;25.86;39.32;100492.23;1764345;80;21082;-69
2021/07/24 09:05:15;;;;;;;8.50;4.80;;;;;;;25.83;39.10;100491.33;1771428;79;21116;-68
2021/07/24 09:07:49;;;;;;;8.25;5.47;;;;;;;25.75;39.62;100489.72;1746725;79;21039;-71
2021/07/24 09:10:18;;;;;;;8.23;5.07;;;;;;;25.73;39.89;100497.21;1771107;79;21046;-70
2021/07/24 09:12:47;;;;;;;7.37;4.92;;;;;;;25.71;40.46;100493.91;1763395;79;21045;-71
2021/07/24 09:15:16;;;;;;;8.48;5.65;;;;;;;25.76;40.20;100492.20;1764657;80;21141;-70
2021/07/24 09:17:44;;;;;;;10.53;4.90;;;;;;;25.86;39.66;100493.05;1761834;80;22290;-71
2021/07/24 09:20:10;;;;;;;11.57;4.80;;;;;;;25.95;39.69;100489.58;1765162;80;21110;-72
2021/07/24 09:34:40;;;;;;;8.53;5.10;;;;;;;27.61;37.31;100486.66;1866577;75;23181;-75
2021/07/24 09:37:15;;;;;;;8.53;5.12;;;;;;;27.76;37.23;100486.73;1863667;75;21544;-75
2021/07/24 09:39:41;;;;;;;;;;;;;;;27.76;37.22;100484.03;1849874;75;21110;-75
2021/07/24 09:42:13;;;;;;;7.53;5.33;;;;;;;27.77;36.58;100484.31;1857441;76;20214;-75
2021/07/24 09:44:39;;;;;;;9.00;5.05;;;;;;;27.69;36.10;100491.41;1836436;76;21034;-77
2021/07/24 09:47:08;;;;;;;9.63;5.62;;;;;;;27.70;36.42;100490.37;1838304;76;21505;-77
2021/07/24 09:49:37;;;;;;;7.40;5.20;;;;;;;27.72;36.24;100487.73;1839908;78;21521;-77
2021/07/24 09:52:13;;;;;;;6.70;4.92;;;;;;;27.67;36.39;100486.27;1794974;77;21107;-77
2021/07/24 09:54:39;;;;;;;8.00;4.90;;;;;;;27.59;36.97;100484.72;1836125;78;20944;-77
2021/07/24 09:57:06;;;;;;;10.23;4.78;;;;;;;27.52;36.82;100476.41;1806521;78;21510;-75
2021/07/24 09:59:33;;;;;;;9.00;4.95;;;;;;;27.47;36.70;100490.64;1815271;77;21355;-76
2021/07/24 10:02:08;;;;;;;7.90;4.62;;;;;;;27.42;36.63;100488.63;1843346;77;20984;-73
2021/07/24 10:04:36;;;;;;;8.25;5.12;;;;;;;27.37;36.37;100482.26;1843349;76;21065;-76
2021/07/24 10:07:07;;;;;;;10.98;5.78;;;;;;;27.29;36.72;100480.73;1804557;78;21001;-77
2021/07/24 10:09:40;;;;;;;7.78;4.87;;;;;;;27.24;36.88;100480.03;1805826;76;21070;-79
2021/07/24 10:12:09;;;;;;;9.23;4.97;;;;;;;27.21;36.48;100480.48;1801952;77;21066;-78
2021/07/24 10:14:35;;;;;;;7.45;4.37;;;;;;;27.18;35.92;100478.25;1831828;78;21097;-78
2021/07/24 10:17:03;;;;;;;7.33;5.10;;;;;;;27.18;36.85;100472.84;1829695;76;21980;-78
2021/07/24 10:19:31;;;;;;;8.53;4.72;;;;;;;27.21;37.29;100472.39;1838374;76;21012;-77
2021/07/24 10:21:59;;;;;;;8.15;5.58;;;;;;;27.32;38.53;100474.02;1786120;78;20995;-77
2021/07/24 10:24:26;;;;;;;8.55;5.40;;;;;;;27.46;38.13;100479.53;1778624;80;21031;-77
2021/07/24 10:27:11;;;;;;;7.75;5.00;;;;;;;27.59;37.05;100475.26;1768206;79;21041;-78
2021/07/24 10:30:03;;;;;;;6.90;4.83;;;;;;;27.71;36.43;100474.45;1748793;80;21053;-77
2021/07/24 10:32:31;;;;;;;8.85;5.67;;;;;;;27.85;36.98;100469.09;1769105;79;21042;-75
2021/07/24 10:34:58;;;;;;;7.67;5.28;;;;;;;27.98;36.71;100474.30;1771166;79;21042;-77
2021/07/24 10:37:41;;;;;;;7.28;5.53;;;;;;;28.04;36.17;100474.41;1779135;79;21371;-78
2021/07/24 10:40:25;;;;;;;8.58;5.30;;;;;;;28.05;36.50;100475.52;1737024;80;21059;-77
2021/07/24 10:42:52;;;;;;;7.95;5.22;;;;;;;28.00;35.80;100476.77;1773879;79;21596;-77
2021/07/24 10:45:45;;;;;;;6.97;4.80;;;;;;;27.88;35.83;100476.73;1755387;80;21029;-77
2021/07/24 10:48:17;;;;;;;8.45;4.92;;;;;;;27.83;36.51;100476.63;1743331;80;21050;-77
2021/07/24 10:50:58;;;;;;;9.10;5.08;;;;;;;27.82;36.58;100470.91;1773397;80;21040;-77
2021/07/24 10:53:27;;;;;;;8.30;5.65;;;;;;;27.81;37.20;100471.98;1742826;80;21267;-77
2021/07/24 10:55:55;;;;;;;8.35;5.05;;;;;;;27.83;36.45;100469.05;1753797;79;21038;-77
2021/07/24 10:58:29;;;;;;;7.53;5.33;;;;;;;27.85;35.87;100469.62;1770039;79;21078;-76
2021/07/24 11:01:06;;;;;;;9.73;4.63;;;;;;;27.89;35.69;100472.14;1773346;80;20959;-77
2021/07/24 11:03:40;;;;;;;8.53;4.83;;;;;;;27.94;36.09;100471.78;1770325;79;21038;-77
2021/07/24 11:06:31;;;;;;;8.50;4.60;;;;;;;27.99;37.46;100469.70;1770243;79;21066;-77
2021/07/24 11:09:15;;;;;;;8.90;5.22;;;;;;;28.05;37.37;100470.11;1765513;80;21939;-77
2021/07/24 11:11:48;;;;;;;8.63;5.58;;;;;;;28.06;36.47;100471.77;1771449;80;21026;-77
2021/07/24 11:14:38;;;;;;;8.97;5.33;;;;;;;28.06;35.71;100470.42;1751477;79;21040;-78
2021/07/24 11:17:15;;;;;;;8.75;4.85;;;;;;;28.09;35.55;100463.19;1764878;79;21561;-77
2021/07/24 11:19:54;;;;;;;8.58;5.67;;;;;;;28.11;36.68;100465.12;1777518;79;21021;-77
2021/07/24 11:22:23;;;;;;;7.03;5.15;;;;;;;28.16;37.04;100459.81;1749469;79;21015;-76
2021/07/24 11:24:55;;;;;;;10.78;5.78;;;;;;;28.25;37.68;100456.20;1772418;79;21082;-75
2021/07/24 11:27:35;;;;;;;9.53;5.37;;;;;;;28.38;37.73;100463.77;1780578;80;21046;-77
2021/07/24 11:30:08;;;;;;;8.13;5.22;;;;;;;28.43;37.72;100457.09;1737000;80;21532;-77
2021/07/24 11:32:43;;;;;;;10.30;5.30;;;;;;;28.40;37.03;100467.08;1771490;80;21042;-77
2021/07/24 11:35:11;;;;;;;8.48;5.12;;;;;;;28.37;37.56;100468.90;1765124;80;21114;-80
2021/07/24 11:37:41;;;;;;;10.63;5.10;;;;;;;28.33;36.66;100464.50;1770973;80;21082;-75
2021/07/24 11:40:15;;;;;;;8.30;5.55;;;;;;;28.29;36.90;100468.19;1769722;79;21596;-75
2021/07/24 11:42:41;;;;;;;8.00;5.67;;;;;;;28.26;36.74;100465.98;1767399;80;21518;-74
2021/07/24 11:45:09;;;;;;;9.20;5.30;;;;;;;28.26;37.90;100470.05;1776690;79;21050;-79
2021/07/24 11:47:36;;;;;;;8.50;5.78;;;;;;;28.25;38.38;100470.27;1778613;80;21109;-80